createdAt,value
2019-04-16T00:00:16.515Z,57.04
2019-04-16T00:00:43.357Z,56.94
2019-04-16T00:01:11.210Z,57.13
2019-04-16T00:01:36.579Z,56.37
2019-04-16T00:02:03.817Z,57.13
2019-04-16T00:02:30.862Z,57.23
2019-04-16T00:02:57.959Z,57.23
2019-04-16T00:03:25.059Z,57.32
2019-04-16T00:03:53.620Z,57.32
2019-04-16T00:04:18.271Z,56.85
2019-04-16T00:04:45.361Z,56.94
2019-04-16T00:05:12.464Z,57.13
2019-04-16T00:05:39.559Z,57.04
2019-04-16T00:06:06.696Z,57.23
2019-04-16T00:06:32.808Z,57.23
2019-04-16T00:06:58.938Z,56.94
2019-04-16T00:07:25.055Z,57.04
2019-04-16T00:07:51.197Z,57.04
2019-04-16T00:08:27.544Z,56.56
2019-04-16T00:08:46.391Z,56.75
2019-04-16T00:09:13.515Z,56.75
2019-04-16T00:09:39.652Z,56.94
2019-04-16T00:10:05.838Z,57.23
2019-04-16T00:10:31.952Z,56.85
2019-04-16T00:10:58.046Z,57.23
2019-04-16T00:11:24.155Z,56.94
2019-04-16T00:11:50.291Z,57.04
2019-04-16T00:12:16.405Z,57.04
2019-04-16T00:12:42.510Z,57.32
2019-04-16T00:13:08.647Z,57.13
2019-04-16T00:13:34.778Z,57.04
2019-04-16T00:14:03.380Z,57.23
2019-04-16T00:14:28.103Z,56.94
2019-04-16T00:14:54.209Z,57.04
2019-04-16T00:15:20.344Z,56.65
2019-04-16T00:15:47.256Z,56.85
2019-04-16T00:16:14.359Z,56.94
2019-04-16T00:16:41.312Z,57.7
2019-04-16T00:17:07.589Z,57.23
2019-04-16T00:17:34.692Z,56.75
2019-04-16T00:18:01.793Z,57.23
2019-04-16T00:18:28.898Z,56.75
2019-04-16T00:18:58.960Z,57.13
2019-04-16T00:19:25.125Z,56.85
2019-04-16T00:19:51.269Z,57.51
2019-04-16T00:20:18.413Z,57.51
2019-04-16T00:20:45.542Z,57.51
2019-04-16T00:21:12.749Z,57.7
2019-04-16T00:21:41.132Z,57.32
2019-04-16T00:22:05.951Z,57.13
2019-04-16T00:22:33.090Z,56.75
2019-04-16T00:22:59.194Z,57.7
2019-04-16T00:23:25.301Z,57.13
2019-04-16T00:23:52.098Z,56.46
2019-04-16T00:24:19.276Z,57.13
2019-04-16T00:24:45.398Z,57.13
2019-04-16T00:25:11.496Z,56.75
2019-04-16T00:25:37.608Z,57.13
2019-04-16T00:26:04.747Z,56.85
2019-04-16T00:26:31.801Z,56.56
2019-04-16T00:26:59.035Z,56.56
2019-04-16T00:27:28.175Z,57.8
2019-04-16T00:27:51.168Z,56.75
2019-04-16T00:28:18.410Z,56.56
2019-04-16T00:28:45.508Z,56.56
2019-04-16T00:29:12.600Z,57.04
2019-04-16T00:29:39.983Z,56.94
2019-04-16T00:30:07.049Z,57.23
2019-04-16T00:30:35.645Z,57.42
2019-04-16T00:31:00.254Z,57.23
2019-04-16T00:31:26.779Z,57.04
2019-04-16T00:31:53.876Z,57.04
2019-04-16T00:32:20.208Z,57.23
2019-04-16T00:32:47.874Z,56.85
2019-04-16T00:33:14.974Z,57.13
2019-04-16T00:33:42.643Z,57.13
2019-04-16T00:34:08.286Z,57.23
2019-04-16T00:34:35.320Z,56.75
2019-04-16T00:35:02.417Z,56.85
2019-04-16T00:35:28.584Z,56.82
2019-04-16T00:35:55.678Z,57.87
2019-04-16T00:36:23.022Z,57.67
2019-04-16T00:36:49.378Z,57.67
2019-04-16T00:37:15.494Z,57.39
2019-04-16T00:37:41.651Z,57.2
2019-04-16T00:38:08.780Z,57.39
2019-04-16T00:38:40.784Z,57.29
2019-04-16T00:39:03.986Z,57.39
2019-04-16T00:39:30.845Z,57.29
2019-04-16T00:39:57.280Z,57.39
2019-04-16T00:40:26.337Z,57.29
2019-04-16T00:40:50.545Z,57.42
2019-04-16T00:41:16.675Z,57.39
2019-04-16T00:41:42.810Z,57.2
2019-04-16T00:42:08.952Z,57.48
2019-04-16T00:42:35.062Z,57.2
2019-04-16T00:43:01.196Z,57.29
2019-04-16T00:43:27.302Z,57.58
2019-04-16T00:43:53.467Z,57.58
2019-04-16T00:44:19.575Z,57.42
2019-04-16T00:44:45.678Z,57.48
2019-04-16T00:45:11.788Z,57.39
2019-04-16T00:45:37.894Z,57.48
2019-04-16T00:46:04.005Z,57.58
2019-04-16T00:46:31.126Z,57.39
2019-04-16T00:46:57.231Z,57.58
2019-04-16T00:47:23.340Z,57.48
2019-04-16T00:47:51.322Z,57.48
2019-04-16T00:48:16.544Z,57.01
2019-04-16T00:48:42.656Z,57.39
2019-04-16T00:49:08.762Z,57.1
2019-04-16T00:49:37.827Z,57.29
2019-04-16T00:50:03.968Z,57.1
2019-04-16T00:50:30.064Z,57.2
2019-04-16T00:50:56.170Z,57.48
2019-04-16T00:51:22.276Z,57.2
2019-04-16T00:51:48.389Z,57.2
2019-04-16T00:52:15.484Z,57.29
2019-04-16T00:52:41.615Z,57.01
2019-04-16T00:53:08.893Z,57.87
2019-04-16T00:53:36.304Z,57.39
2019-04-16T00:54:01.006Z,57.77
2019-04-16T00:54:28.136Z,57.48
2019-04-16T00:54:55.232Z,57.77
2019-04-16T00:55:22.330Z,58.06
2019-04-16T00:55:49.426Z,58.15
2019-04-16T00:56:16.087Z,58.06
2019-04-16T00:56:43.470Z,58.15
2019-04-16T00:57:08.903Z,57.77
2019-04-16T00:57:36.003Z,57.67
2019-04-16T00:58:03.235Z,57.77
2019-04-16T00:58:30.403Z,57.77
2019-04-16T00:58:57.507Z,57.96
2019-04-16T00:59:24.092Z,57.58
2019-04-16T00:59:54.855Z,57.67
2019-04-16T01:00:17.884Z,57.87
2019-04-16T01:00:44.989Z,57.58
2019-04-16T01:01:11.097Z,57.87
2019-04-16T01:01:37.205Z,57.87
2019-04-16T01:02:03.406Z,57.87
2019-04-16T01:02:29.699Z,57.67
2019-04-16T01:02:55.828Z,58.06
2019-04-16T01:03:21.936Z,58.15
2019-04-16T01:03:48.049Z,57.87
2019-04-16T01:04:14.333Z,58.25
2019-04-16T01:04:40.448Z,58.15
2019-04-16T01:05:06.615Z,58.34
2019-04-16T01:05:34.994Z,57.96
2019-04-16T01:05:59.827Z,57.87
2019-04-16T01:06:26.919Z,57.96
2019-04-16T01:06:53.056Z,57.96
2019-04-16T01:07:19.311Z,57.96
2019-04-16T01:07:45.439Z,57.87
2019-04-16T01:08:11.545Z,57.96
2019-04-16T01:08:37.655Z,58.06
2019-04-16T01:09:05.769Z,58.06
2019-04-16T01:09:31.879Z,58.06
2019-04-16T01:09:58.015Z,57.96
2019-04-16T01:10:24.121Z,58.06
2019-04-16T01:10:50.233Z,57.87
2019-04-16T01:11:16.337Z,57.67
2019-04-16T01:11:42.452Z,57.67
2019-04-16T01:12:09.577Z,58.06
2019-04-16T01:12:35.712Z,57.96
2019-04-16T01:13:01.958Z,57.77
2019-04-16T01:13:29.059Z,57.87
2019-04-16T01:13:55.604Z,58.25
2019-04-16T01:14:24.175Z,58.06
2019-04-16T01:14:49.388Z,58.34
2019-04-16T01:15:16.954Z,57.87
2019-04-16T01:15:44.056Z,57.87
2019-04-16T01:16:11.154Z,58.34
2019-04-16T01:16:38.273Z,58.15
2019-04-16T01:17:05.733Z,58.25
2019-04-16T01:17:33.335Z,58.15
2019-04-16T01:17:57.999Z,58.25
2019-04-16T01:18:25.091Z,58.44
2019-04-16T01:18:52.194Z,57.96
2019-04-16T01:19:19.317Z,58.15
2019-04-16T01:19:46.419Z,58.34
2019-04-16T01:20:13.603Z,58.22
2019-04-16T01:20:40.354Z,58.31
2019-04-16T01:21:05.847Z,58.22
2019-04-16T01:21:32.941Z,58.15
2019-04-16T01:22:00.038Z,58.03
2019-04-16T01:22:27.104Z,58.4
2019-04-16T01:22:54.203Z,58.06
2019-04-16T01:23:21.301Z,58.12
2019-04-16T01:23:49.262Z,58.12
2019-04-16T01:24:14.502Z,58.12
2019-04-16T01:24:41.273Z,58.4
2019-04-16T01:25:08.263Z,58.12
2019-04-16T01:25:35.358Z,58.03
2019-04-16T01:26:02.582Z,58.22
2019-04-16T01:26:29.704Z,58.22
2019-04-16T01:26:58.026Z,58.4
2019-04-16T01:27:22.937Z,58.15
2019-04-16T01:27:50.060Z,58.31
2019-04-16T01:28:17.185Z,58.03
2019-04-16T01:28:44.285Z,58.31
2019-04-16T01:29:11.418Z,58.22
2019-04-16T01:29:38.517Z,58.03
2019-04-16T01:30:06.204Z,57.93
2019-04-16T01:30:36.257Z,58.4
2019-04-16T01:30:58.953Z,58.31
2019-04-16T01:31:26.058Z,58.31
2019-04-16T01:31:53.148Z,58.31
2019-04-16T01:32:20.243Z,58.31
2019-04-16T01:32:47.340Z,58.22
2019-04-16T01:33:14.608Z,58.03
2019-04-16T01:33:40.579Z,58.31
2019-04-16T01:34:07.681Z,57.93
2019-04-16T01:34:34.778Z,58.22
2019-04-16T01:35:01.875Z,58.4
2019-04-16T01:35:28.978Z,58.4
2019-04-16T01:35:56.080Z,58.59
2019-04-16T01:36:22.805Z,58.31
2019-04-16T01:36:51.327Z,58.12
2019-04-16T01:37:15.845Z,58.4
2019-04-16T01:37:42.946Z,58.31
2019-04-16T01:38:09.111Z,58.4
2019-04-16T01:38:36.214Z,58.22
2019-04-16T01:39:15.519Z,58.31
2019-04-16T01:39:32.422Z,58.4
2019-04-16T01:39:59.510Z,58.4
2019-04-16T01:40:26.849Z,58.4
2019-04-16T01:40:53.966Z,58.03
2019-04-16T01:41:21.904Z,58.4
2019-04-16T01:41:47.175Z,58.4
2019-04-16T01:42:14.253Z,58.31
2019-04-16T01:42:41.352Z,58.03
2019-04-16T01:43:08.445Z,58.22
2019-04-16T01:43:35.542Z,58.22
2019-04-16T01:44:01.702Z,58.22
2019-04-16T01:44:29.388Z,57.93
2019-04-16T01:44:59.315Z,58.12
2019-04-16T01:45:22.036Z,58.4
2019-04-16T01:45:49.138Z,58.4
2019-04-16T01:46:16.235Z,58.5
2019-04-16T01:46:42.362Z,58.4
2019-04-16T01:47:08.509Z,58.03
2019-04-16T01:47:36.962Z,58.22
2019-04-16T01:48:06.631Z,58.22
2019-04-16T01:48:29.178Z,58.31
2019-04-16T01:48:56.276Z,58.4
2019-04-16T01:49:23.410Z,58.5
2019-04-16T01:49:49.540Z,58.31
2019-04-16T01:50:16.635Z,58.59
2019-04-16T01:50:43.692Z,58.4
2019-04-16T01:51:09.851Z,58.22
2019-04-16T01:51:37.804Z,58.31
2019-04-16T01:52:05.025Z,57.84
2019-04-16T01:52:32.127Z,58.31
2019-04-16T01:52:59.227Z,57.93
2019-04-16T01:53:26.367Z,58.5
2019-04-16T01:53:53.465Z,58.59
2019-04-16T01:54:22.485Z,58.69
2019-04-16T01:54:46.699Z,58.59
2019-04-16T01:55:13.834Z,58.4
2019-04-16T01:55:42.389Z,58.5
2019-04-16T01:56:08.035Z,58.4
2019-04-16T01:56:34.367Z,58.59
2019-04-16T01:57:01.459Z,58.59
2019-04-16T01:57:28.295Z,58.4
2019-04-16T01:57:53.743Z,58.4
2019-04-16T01:58:20.835Z,58.4
2019-04-16T01:58:47.956Z,59.36
2019-04-16T01:59:15.081Z,59.07
2019-04-16T01:59:41.669Z,59.36
2019-04-16T02:00:08.887Z,59.27
2019-04-16T02:00:36.426Z,59.17
2019-04-16T02:01:02.032Z,58.59
2019-04-16T02:01:29.150Z,58.69
2019-04-16T02:01:56.285Z,58.79
2019-04-16T02:02:23.408Z,58.59
2019-04-16T02:02:50.503Z,58.79
2019-04-16T02:03:17.732Z,58.69
2019-04-16T02:03:48.565Z,58.69
2019-04-16T02:04:10.829Z,58.59
2019-04-16T02:04:36.994Z,58.59
2019-04-16T02:05:04.426Z,58.88
2019-04-16T02:05:31.525Z,59.17
2019-04-16T02:05:58.623Z,58.69
2019-04-16T02:06:25.895Z,58.98
2019-04-16T02:06:54.254Z,58.69
2019-04-16T02:07:19.047Z,58.98
2019-04-16T02:07:46.137Z,58.69
2019-04-16T02:08:13.233Z,58.95
2019-04-16T02:08:40.337Z,58.66
2019-04-16T02:09:06.471Z,58.59
2019-04-16T02:09:35.780Z,58.59
2019-04-16T02:10:05.889Z,58.76
2019-04-16T02:10:29.059Z,58.76
2019-04-16T02:10:56.103Z,58.59
2019-04-16T02:11:23.373Z,58.85
2019-04-16T02:11:50.477Z,58.79
2019-04-16T02:12:17.562Z,58.79
2019-04-16T02:12:43.929Z,58.76
2019-04-16T02:13:14.487Z,58.79
2019-04-16T02:13:37.657Z,58.79
2019-04-16T02:14:04.784Z,58.76
2019-04-16T02:14:31.914Z,58.85
2019-04-16T02:14:59.039Z,58.85
2019-04-16T02:15:26.167Z,58.69
2019-04-16T02:15:53.325Z,58.98
2019-04-16T02:16:19.448Z,58.66
2019-04-16T02:16:46.157Z,59.23
2019-04-16T02:17:12.376Z,59.05
2019-04-16T02:17:39.472Z,59.42
2019-04-16T02:18:06.569Z,59.14
2019-04-16T02:18:32.707Z,59.36
2019-04-16T02:19:01.081Z,59.23
2019-04-16T02:19:25.931Z,59.17
2019-04-16T02:19:53.024Z,59.27
2019-04-16T02:20:20.151Z,58.59
2019-04-16T02:20:47.239Z,58.66
2019-04-16T02:21:14.368Z,59.14
2019-04-16T02:21:41.418Z,59.14
2019-04-16T02:22:12.157Z,59.14
2019-04-16T02:22:34.771Z,59.42
2019-04-16T02:23:01.866Z,59.14
2019-04-16T02:23:29.093Z,59.33
2019-04-16T02:23:56.186Z,59.17
2019-04-16T02:24:23.292Z,58.66
2019-04-16T02:24:49.396Z,59.14
2019-04-16T02:25:18.760Z,59.17
2019-04-16T02:25:42.785Z,59.05
2019-04-16T02:26:09.920Z,59.14
2019-04-16T02:26:36.050Z,59.42
2019-04-16T02:27:03.152Z,59.23
2019-04-16T02:27:29.419Z,59.14
2019-04-16T02:27:56.906Z,59.33
2019-04-16T02:28:22.660Z,59.23
2019-04-16T02:28:49.920Z,59.05
2019-04-16T02:29:17.017Z,58.95
2019-04-16T02:29:44.113Z,59.14
2019-04-16T02:30:11.245Z,59.27
2019-04-16T02:30:39.749Z,58.66
2019-04-16T02:31:12.757Z,58.76
2019-04-16T02:31:33.821Z,58.66
2019-04-16T02:32:02.017Z,58.66
2019-04-16T02:32:28.113Z,58.57
2019-04-16T02:32:54.277Z,58.76
2019-04-16T02:33:20.390Z,58.76
2019-04-16T02:33:46.521Z,58.76
2019-04-16T02:34:13.010Z,58.85
2019-04-16T02:34:39.176Z,58.66
2019-04-16T02:35:05.891Z,59.14
2019-04-16T02:35:32.085Z,59.14
2019-04-16T02:35:58.229Z,59.14
2019-04-16T02:36:24.619Z,59.14
2019-04-16T02:36:50.769Z,59.23
2019-04-16T02:37:17.883Z,59.33
2019-04-16T02:37:45.001Z,59.14
2019-04-16T02:38:13.532Z,59.14
2019-04-16T02:38:38.243Z,59.14
2019-04-16T02:39:05.647Z,59.14
2019-04-16T02:39:47.457Z,59.23
2019-04-16T02:40:02.760Z,59.14
2019-04-16T02:40:29.897Z,58.95
2019-04-16T02:40:57.045Z,59.23
2019-04-16T02:41:24.659Z,59.14
2019-04-16T02:41:49.560Z,59.14
2019-04-16T02:42:15.748Z,59.14
2019-04-16T02:42:42.895Z,59.05
2019-04-16T02:43:11.103Z,59.14
2019-04-16T02:43:40.821Z,59.23
2019-04-16T02:44:04.330Z,59.14
2019-04-16T02:44:31.469Z,59.14
2019-04-16T02:44:58.618Z,59.33
2019-04-16T02:45:24.757Z,59.8
2019-04-16T02:45:56.321Z,59.8
2019-04-16T02:46:18.041Z,59.8
2019-04-16T02:46:44.210Z,59.23
2019-04-16T02:47:12.356Z,59.23
2019-04-16T02:47:41.540Z,59.33
2019-04-16T02:48:06.609Z,59.14
2019-04-16T02:48:33.733Z,58.95
2019-04-16T02:49:02.194Z,59.42
2019-04-16T02:49:29.177Z,59.33
2019-04-16T02:49:57.664Z,59.23
2019-04-16T02:50:22.430Z,59.23
2019-04-16T02:50:49.525Z,59.23
2019-04-16T02:51:17.616Z,59.42
2019-04-16T02:51:43.828Z,58.95
2019-04-16T02:52:14.840Z,59.42
2019-04-16T02:52:37.430Z,59.23
2019-04-16T02:53:04.553Z,59.33
2019-04-16T02:53:31.686Z,59.23
2019-04-16T02:53:59.990Z,59.14
2019-04-16T02:54:32.104Z,59.14
2019-04-16T02:54:52.564Z,59.42
2019-04-16T02:55:19.724Z,59.23
2019-04-16T02:55:46.850Z,59.23
2019-04-16T02:56:16.945Z,58.95
2019-04-16T02:56:40.254Z,58.95
2019-04-16T02:57:07.733Z,59.05
2019-04-16T02:57:33.935Z,59.52
2019-04-16T02:58:01.492Z,59.8
2019-04-16T02:58:26.459Z,59.9
2019-04-16T02:58:53.577Z,59.71
2019-04-16T02:59:20.705Z,59.52
2019-04-16T02:59:47.994Z,59.14
2019-04-16T03:00:17.528Z,59.23
2019-04-16T03:00:41.156Z,59.33
2019-04-16T03:01:08.253Z,59.52
2019-04-16T03:01:35.383Z,59.52
2019-04-16T03:02:02.478Z,59.14
2019-04-16T03:02:29.575Z,59.05
2019-04-16T03:02:55.762Z,59.05
2019-04-16T03:03:22.189Z,59.14
2019-04-16T03:03:48.391Z,59.14
2019-04-16T03:04:15.488Z,59.33
2019-04-16T03:04:42.610Z,59.23
2019-04-16T03:05:09.371Z,59.52
2019-04-16T03:05:36.465Z,59.71
2019-04-16T03:06:02.611Z,59.9
2019-04-16T03:06:31.609Z,59.8
2019-04-16T03:06:55.852Z,60.09
2019-04-16T03:07:22.952Z,59.8
2019-04-16T03:07:49.136Z,59.61
2019-04-16T03:08:16.286Z,59.61
2019-04-16T03:08:43.349Z,59.71
2019-04-16T03:09:10.567Z,59.52
2019-04-16T03:09:39.715Z,59.61
2019-04-16T03:10:05.881Z,59.8
2019-04-16T03:10:32.932Z,59.61
2019-04-16T03:10:59.093Z,60.09
2019-04-16T03:11:26.195Z,59.99
2019-04-16T03:11:53.294Z,59.8
2019-04-16T03:12:20.813Z,59.71
2019-04-16T03:12:46.653Z,59.71
2019-04-16T03:13:12.781Z,59.61
2019-04-16T03:13:39.878Z,59.8
2019-04-16T03:14:07.963Z,60.09
2019-04-16T03:14:35.063Z,59.8
2019-04-16T03:15:02.800Z,59.52
2019-04-16T03:15:30.236Z,59.61
2019-04-16T03:15:55.409Z,59.23
2019-04-16T03:16:23.310Z,59.33
2019-04-16T03:16:50.411Z,59.33
2019-04-16T03:17:17.507Z,58.95
2019-04-16T03:17:44.606Z,59.61
2019-04-16T03:18:11.651Z,59.42
2019-04-16T03:18:37.810Z,59.42
2019-04-16T03:19:04.915Z,58.95
2019-04-16T03:19:32.007Z,59.05
2019-04-16T03:19:59.137Z,58.95
2019-04-16T03:20:26.256Z,59.14
2019-04-16T03:20:55.559Z,59.14
2019-04-16T03:21:19.496Z,59.05
2019-04-16T03:21:46.598Z,58.95
2019-04-16T03:22:14.140Z,58.95
2019-04-16T03:22:41.114Z,59.23
2019-04-16T03:23:07.265Z,59.23
2019-04-16T03:23:36.441Z,59.23
2019-04-16T03:24:00.464Z,59.23
2019-04-16T03:24:27.557Z,59.23
2019-04-16T03:24:53.696Z,58.66
2019-04-16T03:25:20.794Z,58.85
2019-04-16T03:25:47.890Z,58.57
2019-04-16T03:26:17.462Z,59.14
2019-04-16T03:26:44.123Z,59.14
2019-04-16T03:27:10.285Z,59.14
2019-04-16T03:27:37.422Z,59.23
2019-04-16T03:28:04.737Z,59.14
2019-04-16T03:28:31.930Z,59.05
2019-04-16T03:28:59.473Z,59.33
2019-04-16T03:29:27.432Z,59.42
2019-04-16T03:29:52.323Z,59.14
2019-04-16T03:30:20.508Z,59.8
2019-04-16T03:30:48.628Z,59.71
2019-04-16T03:31:22.107Z,59.71
2019-04-16T03:31:43.934Z,59.14
2019-04-16T03:32:14.117Z,58.95
2019-04-16T03:32:41.131Z,59.23
2019-04-16T03:33:12.260Z,59.14
2019-04-16T03:33:35.386Z,59.14
2019-04-16T03:34:03.507Z,58.85
2019-04-16T03:34:30.601Z,58.66
2019-04-16T03:34:57.726Z,58.66
2019-04-16T03:35:26.325Z,59.23
2019-04-16T03:35:51.074Z,59.23
2019-04-16T03:36:18.188Z,59.05
2019-04-16T03:36:45.312Z,59.23
2019-04-16T03:37:13.405Z,59.14
2019-04-16T03:37:40.499Z,59.14
2019-04-16T03:38:07.632Z,59.05
2019-04-16T03:38:36.653Z,58.95
2019-04-16T03:39:01.853Z,59.23
2019-04-16T03:39:27.992Z,59.71
2019-04-16T03:39:54.134Z,59.61
2019-04-16T03:40:25.390Z,59.42
2019-04-16T03:40:49.338Z,59.33
2019-04-16T03:41:15.502Z,59.14
2019-04-16T03:41:41.594Z,59.8
2019-04-16T03:42:08.924Z,59.71
2019-04-16T03:42:36.050Z,59.8
2019-04-16T03:43:04.197Z,59.71
2019-04-16T03:43:32.764Z,59.71
2019-04-16T03:43:57.363Z,59.71
2019-04-16T03:44:24.642Z,59.52
2019-04-16T03:44:51.737Z,59.71
2019-04-16T03:45:18.847Z,59.23
2019-04-16T03:45:44.965Z,58.95
2019-04-16T03:46:12.700Z,59.33
2019-04-16T03:46:40.017Z,58.95
2019-04-16T03:47:05.324Z,58.85
2019-04-16T03:47:32.426Z,58.47
2019-04-16T03:47:59.524Z,58.66
2019-04-16T03:48:26.996Z,58.85
2019-04-16T03:48:56.058Z,58.66
2019-04-16T03:49:20.208Z,59.05
2019-04-16T03:49:46.336Z,59.23
2019-04-16T03:50:13.443Z,59.14
2019-04-16T03:50:40.541Z,59.8
2019-04-16T03:51:07.668Z,59.71
2019-04-16T03:51:35.408Z,59.8
2019-04-16T03:52:00.909Z,59.71
2019-04-16T03:52:28.000Z,59.52
2019-04-16T03:52:56.090Z,59.14
2019-04-16T03:53:23.647Z,59.14
2019-04-16T03:53:50.750Z,59.14
2019-04-16T03:54:18.781Z,59.05
2019-04-16T03:54:44.060Z,59.33
2019-04-16T03:55:11.157Z,59.52
2019-04-16T03:55:38.314Z,59.23
2019-04-16T03:56:05.418Z,59.14
2019-04-16T03:56:31.850Z,59.52
2019-04-16T03:57:01.788Z,59.52
2019-04-16T03:57:24.143Z,59.61
2019-04-16T03:57:51.244Z,59.61
2019-04-16T03:58:18.367Z,59.52
2019-04-16T03:58:45.470Z,59.8
2019-04-16T03:59:12.597Z,59.71
2019-04-16T03:59:39.932Z,59.8
2019-04-16T04:00:11.006Z,59.71
2019-04-16T04:00:33.907Z,59.61
2019-04-16T04:01:00.999Z,59.52
2019-04-16T04:01:28.098Z,59.61
2019-04-16T04:01:55.196Z,59.99
2019-04-16T04:02:23.080Z,60.09
2019-04-16T04:02:53.768Z,59.99
2019-04-16T04:03:16.685Z,59.8
2019-04-16T04:03:43.745Z,59.99
2019-04-16T04:04:10.846Z,60.28
2019-04-16T04:04:36.969Z,60.66
2019-04-16T04:05:06.453Z,60.38
2019-04-16T04:05:30.203Z,60.38
2019-04-16T04:05:56.681Z,60.47
2019-04-16T04:06:24.072Z,60.66
2019-04-16T04:06:51.204Z,60.47
2019-04-16T04:07:18.590Z,60.57
2019-04-16T04:07:45.685Z,60.28
2019-04-16T04:08:16.045Z,60.57
2019-04-16T04:08:39.234Z,60.18
2019-04-16T04:09:07.404Z,60.28
2019-04-16T04:09:34.494Z,60.35
2019-04-16T04:10:01.620Z,60.53
2019-04-16T04:10:30.639Z,61.2
2019-04-16T04:10:55.864Z,60.85
2019-04-16T04:11:23.054Z,60.66
2019-04-16T04:11:49.194Z,60.75
2019-04-16T04:12:16.295Z,60.53
2019-04-16T04:12:45.265Z,60.91
2019-04-16T04:13:10.227Z,60.63
2019-04-16T04:13:37.329Z,60.66
2019-04-16T04:14:04.424Z,61.04
2019-04-16T04:14:31.624Z,60.57
2019-04-16T04:14:57.761Z,60.66
2019-04-16T04:15:26.278Z,60.72
2019-04-16T04:15:51.003Z,61.2
2019-04-16T04:16:18.127Z,61.29
2019-04-16T04:16:44.913Z,61.2
2019-04-16T04:17:11.065Z,61.29
2019-04-16T04:17:38.594Z,61.2
2019-04-16T04:18:04.348Z,61.87
2019-04-16T04:18:31.447Z,61.58
2019-04-16T04:18:57.620Z,61.2
2019-04-16T04:19:24.709Z,61.58
2019-04-16T04:19:51.826Z,61.58
2019-04-16T04:20:19.313Z,61.77
2019-04-16T04:20:49.396Z,61.68
2019-04-16T04:21:11.822Z,61.39
2019-04-16T04:21:38.952Z,61.48
2019-04-16T04:22:06.046Z,61.77
2019-04-16T04:22:33.144Z,61.77
2019-04-16T04:23:00.234Z,61.68
2019-04-16T04:23:28.522Z,61.48
2019-04-16T04:23:52.473Z,61.39
2019-04-16T04:24:19.581Z,61.58
2019-04-16T04:24:45.737Z,61.68
2019-04-16T04:25:11.894Z,61.68
2019-04-16T04:25:38.989Z,61.87
2019-04-16T04:26:05.445Z,61.58
2019-04-16T04:26:32.244Z,61.68
2019-04-16T04:26:59.372Z,61.68
2019-04-16T04:27:27.464Z,61.77
2019-04-16T04:27:54.563Z,61.68
2019-04-16T04:28:21.655Z,61.58
2019-04-16T04:28:48.515Z,61.58
2019-04-16T04:29:13.933Z,61.48
2019-04-16T04:29:41.029Z,61.96
2019-04-16T04:30:07.732Z,62.43
2019-04-16T04:30:35.047Z,62.43
2019-04-16T04:31:02.223Z,62.15
2019-04-16T04:31:31.949Z,62.24
2019-04-16T04:31:55.431Z,62.81
2019-04-16T04:32:22.567Z,62.43
2019-04-16T04:32:50.653Z,62.34
2019-04-16T04:33:17.748Z,62.34
2019-04-16T04:33:44.843Z,62.53
2019-04-16T04:34:14.842Z,62.34
2019-04-16T04:34:38.075Z,62.62
2019-04-16T04:35:05.307Z,62.91
2019-04-16T04:35:31.463Z,62.24
2019-04-16T04:35:57.570Z,63.2
2019-04-16T04:36:26.797Z,63.01
2019-04-16T04:36:52.003Z,62.62
2019-04-16T04:37:18.135Z,62.81
2019-04-16T04:37:45.220Z,62.81
2019-04-16T04:38:12.693Z,63.1
2019-04-16T04:38:38.851Z,63.57
2019-04-16T04:39:08.927Z,63.01
2019-04-16T04:39:33.080Z,62.91
2019-04-16T04:40:00.220Z,62.53
2019-04-16T04:40:28.032Z,63.48
2019-04-16T04:40:59.664Z,62.53
2019-04-16T04:41:25.229Z,63.29
2019-04-16T04:41:52.568Z,62.72
2019-04-16T04:42:19.415Z,62.72
2019-04-16T04:42:46.601Z,62.69
2019-04-16T04:43:13.412Z,63.29
2019-04-16T04:43:40.513Z,63.26
2019-04-16T04:44:06.647Z,63.29
2019-04-16T04:44:33.563Z,63.17
2019-04-16T04:45:00.977Z,63.01
2019-04-16T04:45:28.072Z,63.29
2019-04-16T04:45:55.170Z,63.29
2019-04-16T04:46:22.340Z,63.39
2019-04-16T04:46:48.471Z,63.35
2019-04-16T04:47:15.466Z,63.39
2019-04-16T04:47:41.677Z,63.07
2019-04-16T04:48:11.100Z,63.26
2019-04-16T04:48:36.879Z,63.35
2019-04-16T04:49:03.036Z,63.17
2019-04-16T04:49:30.336Z,63.26
2019-04-16T04:49:56.234Z,63.29
2019-04-16T04:50:23.346Z,63.54
2019-04-16T04:50:50.446Z,63.17
2019-04-16T04:51:17.562Z,63.35
2019-04-16T04:51:44.667Z,63.26
2019-04-16T04:52:13.516Z,63.26
2019-04-16T04:52:37.895Z,63.35
2019-04-16T04:53:04.995Z,63.67
2019-04-16T04:53:32.141Z,63.26
2019-04-16T04:53:59.245Z,63.45
2019-04-16T04:54:26.340Z,63.39
2019-04-16T04:54:54.085Z,63.64
2019-04-16T04:55:19.916Z,63.2
2019-04-16T04:55:47.058Z,63.45
2019-04-16T04:56:14.149Z,63.45
2019-04-16T04:56:41.907Z,63.35
2019-04-16T04:57:09.032Z,63.35
2019-04-16T04:57:36.125Z,63.39
2019-04-16T04:58:02.656Z,63.2
2019-04-16T04:58:33.670Z,63.45
2019-04-16T04:58:55.772Z,62.88
2019-04-16T04:59:23.097Z,63.29
2019-04-16T04:59:50.190Z,63.26
2019-04-16T05:00:17.294Z,63.35
2019-04-16T05:00:43.421Z,63.45
2019-04-16T05:01:13.290Z,63.45
2019-04-16T05:01:36.686Z,63.64
2019-04-16T05:02:02.826Z,63.26
2019-04-16T05:02:30.934Z,63.64
2019-04-16T05:02:58.036Z,63.64
2019-04-16T05:03:25.338Z,63.26
2019-04-16T05:03:52.455Z,63.45
2019-04-16T05:04:20.318Z,63.29
2019-04-16T05:04:45.664Z,63.45
2019-04-16T05:05:12.759Z,63.26
2019-04-16T05:05:39.861Z,64.21
2019-04-16T05:06:06.954Z,63.92
2019-04-16T05:06:34.052Z,63.92
2019-04-16T05:07:04.390Z,63.83
2019-04-16T05:07:29.415Z,64.02
2019-04-16T05:07:59.624Z,63.83
2019-04-16T05:08:22.597Z,63.83
2019-04-16T05:08:49.691Z,63.54
2019-04-16T05:09:17.116Z,63.64
2019-04-16T05:09:44.228Z,64.02
2019-04-16T05:10:11.330Z,63.83
2019-04-16T05:10:42.648Z,64.14
2019-04-16T05:11:08.230Z,63.92
2019-04-16T05:11:35.323Z,63.73
2019-04-16T05:12:02.421Z,63.83
2019-04-16T05:12:30.264Z,63.64
2019-04-16T05:12:57.364Z,64.11
2019-04-16T05:13:24.849Z,64.21
2019-04-16T05:13:50.568Z,63.83
2019-04-16T05:14:16.704Z,63.83
2019-04-16T05:14:43.795Z,63.92
2019-04-16T05:15:09.927Z,64.11
2019-04-16T05:15:37.027Z,64.02
2019-04-16T05:16:06.928Z,63.83
2019-04-16T05:16:31.445Z,63.73
2019-04-16T05:16:58.336Z,63.54
2019-04-16T05:17:25.433Z,63.73
2019-04-16T05:17:52.553Z,64.21
2019-04-16T05:18:20.643Z,64.11
2019-04-16T05:18:47.930Z,64.49
2019-04-16T05:19:15.697Z,64.3
2019-04-16T05:19:43.697Z,64.3
2019-04-16T05:20:08.313Z,64.4
2019-04-16T05:20:35.436Z,64.4
2019-04-16T05:21:02.538Z,64.21
2019-04-16T05:21:30.059Z,63.83
2019-04-16T05:21:57.163Z,64.3
2019-04-16T05:22:24.255Z,64.11
2019-04-16T05:22:53.446Z,64.4
2019-04-16T05:23:18.959Z,64.14
2019-04-16T05:23:47.054Z,64.3
2019-04-16T05:24:14.145Z,64.4
2019-04-16T05:24:42.273Z,64.59
2019-04-16T05:25:08.430Z,64.53
2019-04-16T05:25:35.523Z,63.76
2019-04-16T05:26:04.436Z,63.73
2019-04-16T05:26:29.721Z,63.92
2019-04-16T05:26:56.825Z,63.64
2019-04-16T05:27:23.941Z,63.29
2019-04-16T05:27:51.058Z,63.26
2019-04-16T05:28:18.353Z,63.45
2019-04-16T05:28:45.762Z,63.26
2019-04-16T05:29:15.936Z,63.67
2019-04-16T05:29:39.565Z,63.48
2019-04-16T05:30:06.694Z,64.02
2019-04-16T05:30:33.846Z,64.02
2019-04-16T05:31:00.952Z,63.95
2019-04-16T05:31:30.969Z,63.92
2019-04-16T05:31:54.394Z,63.95
2019-04-16T05:32:20.721Z,63.67
2019-04-16T05:32:48.822Z,63.2
2019-04-16T05:33:15.922Z,63.1
2019-04-16T05:33:42.046Z,63.29
2019-04-16T05:34:10.604Z,62.91
2019-04-16T05:34:38.757Z,63.48
2019-04-16T05:35:08.916Z,63.48
2019-04-16T05:35:32.086Z,63.48
2019-04-16T05:35:59.433Z,63.2
2019-04-16T05:36:27.071Z,63.1
2019-04-16T05:36:54.234Z,63.29
2019-04-16T05:37:21.388Z,63.01
2019-04-16T05:37:48.455Z,63.2
2019-04-16T05:38:14.548Z,62.91
2019-04-16T05:38:41.641Z,63.1
2019-04-16T05:39:08.766Z,63.1
2019-04-16T05:39:35.866Z,63.1
2019-04-16T05:40:03.022Z,63.29
2019-04-16T05:40:34.190Z,62.53
2019-04-16T05:40:56.284Z,63.2
2019-04-16T05:41:25.553Z,62.53
2019-04-16T05:41:52.947Z,63.1
2019-04-16T05:42:18.726Z,63.1
2019-04-16T05:42:45.831Z,63.1
2019-04-16T05:43:12.970Z,63.2
2019-04-16T05:43:40.192Z,63.39
2019-04-16T05:44:06.350Z,63.01
2019-04-16T05:44:33.910Z,63.01
2019-04-16T05:45:02.370Z,63.2
2019-04-16T05:45:26.744Z,62.81
2019-04-16T05:45:53.845Z,62.34
2019-04-16T05:46:20.941Z,62.62
2019-04-16T05:46:49.030Z,62.81
2019-04-16T05:47:17.800Z,62.24
2019-04-16T05:47:42.260Z,62.34